Time;durP1;ratioP1;P1;durP2;ratioP2;P2;SDS_P1;SDS_P2;PMS_P1;PMS_P2;Temp;Humidity;BMP_temperature;BMP_pressure;BME280_temperature;BME280_humidity;BME280_pressure;Samples;Min_cycle;Max_cycle;Signal;HPM_P1;HPM_P2
2022/10/15 00:00:28;;;;;;;;;;;14.00;99.90;;;;;;5075378;28;19958;-75
2022/10/15 00:02:54;;;;;;;;;;;14.00;99.90;;;;;;5056691;28;19916;-75
2022/10/15 00:05:20;;;;;;;;;;;13.90;99.90;;;;;;5074965;28;19915;-74
2022/10/15 00:07:45;;;;;;;;;;;13.90;99.90;;;;;;5075171;28;19905;-76
2022/10/15 00:10:11;;;;;;;;;;;13.90;99.90;;;;;;5058449;28;19973;-75
2022/10/15 00:12:37;;;;;;;;;;;13.80;99.90;;;;;;5074837;28;20265;-76
2022/10/15 00:15:04;;;;;;;;;;;13.70;99.90;;;;;;5074809;28;19977;-75
2022/10/15 00:17:29;;;;;;;;;;;13.70;99.90;;;;;;5074937;28;19927;-77
2022/10/15 00:19:55;;;;;;;;;;;13.70;99.90;;;;;;5075251;28;20344;-74
2022/10/15 00:22:21;;;;;;;;;;;13.70;99.90;;;;;;5075279;28;19912;-75
2022/10/15 00:24:46;;;;;;;;;;;13.70;99.90;;;;;;5074701;28;20379;-74
2022/10/15 00:27:11;;;;;;;;;;;13.60;99.90;;;;;;5074832;28;19909;-76
2022/10/15 00:29:37;;;;;;;;;;;13.60;99.90;;;;;;5074336;28;20399;-76
2022/10/15 00:32:02;;;;;;;;;;;13.50;99.90;;;;;;5075332;28;19912;-75
2022/10/15 00:34:29;;;;;;;;;;;13.50;99.90;;;;;;5073698;28;19927;-75
2022/10/15 00:36:54;;;;;;;;;;;13.50;99.90;;;;;;5073237;28;19921;-74
2022/10/15 00:39:20;;;;;;;;;;;13.40;99.90;;;;;;5073180;28;19917;-73
2022/10/15 00:41:45;;;;;;;;;;;13.40;99.90;;;;;;5073107;28;19995;-74
2022/10/15 00:44:20;;;;;;;;;;;13.40;99.90;;;;;;5076444;28;19908;-75
2022/10/15 00:47:06;;;;;;;;;;;13.40;99.90;;;;;;5072685;28;19908;-74
2022/10/15 00:49:34;;;;;;;;;;;13.40;99.90;;;;;;5056677;28;19963;-74
2022/10/15 00:52:02;;;;;;;;;;;13.30;99.90;;;;;;5055851;28;19921;-74
2022/10/15 00:54:30;;;;;;;;;;;13.40;99.90;;;;;;5071304;28;19920;-74
2022/10/15 00:56:56;;;;;;;;;;;13.40;99.90;;;;;;5072048;28;19919;-75
2022/10/15 00:59:22;;;;;;;;;;;13.50;99.90;;;;;;5070867;28;19924;-75
2022/10/15 01:01:49;;;;;;;;;;;13.60;99.90;;;;;;5071811;28;20429;-75
2022/10/15 01:04:17;;;;;;;;;;;13.60;99.90;;;;;;5071825;28;19915;-74
2022/10/15 01:06:43;;;;;;;;;;;13.60;99.90;;;;;;5071864;28;19920;-74
2022/10/15 01:09:09;;;;;;;;;;;13.60;99.90;;;;;;5071027;28;20016;-74
2022/10/15 01:11:46;;;;;;;;;;;13.60;99.90;;;;;;5073281;28;20307;-75
2022/10/15 01:14:20;;;;;;;;;;;13.60;99.90;;;;;;5072868;28;19924;-74
2022/10/15 01:16:49;;;;;;;;;;;13.60;99.90;;;;;;5073861;28;19904;-75
2022/10/15 01:19:36;;;;;;;;;;;13.60;99.90;;;;;;5073862;28;19904;-74
2022/10/15 01:22:01;;;;;;;;;;;13.60;99.90;;;;;;5073675;28;19918;-74
2022/10/15 01:24:29;;;;;;;;;;;13.70;99.90;;;;;;5073969;28;20011;-76
2022/10/15 01:27:14;;;;;;;;;;;13.70;99.90;;;;;;5073826;28;19916;-77
2022/10/15 01:29:42;;;;;;;;;;;13.70;99.90;;;;;;5055752;28;19904;-73
2022/10/15 01:32:10;;;;;;;;;;;13.70;99.90;;;;;;5073536;28;20364;-75
2022/10/15 01:34:38;;;;;;;;;;;13.80;99.90;;;;;;5073623;28;19962;-73
2022/10/15 01:37:04;;;;;;;;;;;13.70;99.90;;;;;;5073651;28;19911;-74
2022/10/15 01:39:34;;;;;;;;;;;13.80;99.90;;;;;;5073899;28;19908;-76
2022/10/15 01:42:02;;;;;;;;;;;13.70;99.90;;;;;;5073556;28;20374;-73
2022/10/15 01:44:30;;;;;;;;;;;13.70;99.90;;;;;;5055460;28;19908;-74
2022/10/15 01:46:59;;;;;;;;;;;13.60;99.90;;;;;;5073659;28;19905;-75
2022/10/15 01:49:27;;;;;;;;;;;13.70;99.90;;;;;;5073432;28;19904;-74
2022/10/15 01:51:54;;;;;;;;;;;13.70;99.90;;;;;;5073473;28;20371;-74
2022/10/15 01:54:22;;;;;;;;;;;13.70;99.90;;;;;;5073485;28;19920;-76
2022/10/15 01:56:48;;;;;;;;;;;13.70;99.90;;;;;;5073357;28;19908;-74
2022/10/15 01:59:16;;;;;;;;;;;13.80;99.90;;;;;;5073307;28;19904;-75
2022/10/15 02:01:42;;;;;;;;;;;13.80;99.90;;;;;;5073294;28;19905;-75
2022/10/15 02:04:21;;;;;;;;;;;13.80;99.90;;;;;;5073321;28;19915;-75
2022/10/15 02:06:52;;;;;;;;;;;13.80;99.90;;;;;;5073229;28;20256;-73
2022/10/15 02:09:23;;;;;;;;;;;13.90;99.90;;;;;;5073413;28;19911;-73
2022/10/15 02:11:54;;;;;;;;;;;13.90;99.90;;;;;;5072301;28;19904;-74
2022/10/15 02:14:29;;;;;;;;;;;13.90;99.90;;;;;;5073079;28;19916;-73
2022/10/15 02:17:02;;;;;;;;;;;14.00;99.90;;;;;;5073222;28;19904;-75
2022/10/15 02:19:31;;;;;;;;;;;13.90;99.90;;;;;;5073171;28;19920;-75
2022/10/15 02:21:59;;;;;;;;;;;13.90;99.90;;;;;;5072927;28;19998;-75
2022/10/15 02:24:27;;;;;;;;;;;13.90;99.90;;;;;;5072908;28;19945;-73
2022/10/15 02:26:54;;;;;;;;;;;13.90;99.90;;;;;;5054756;28;19911;-73
2022/10/15 02:29:21;;;;;;;;;;;13.80;99.90;;;;;;5072932;28;20030;-73
2022/10/15 02:31:48;;;;;;;;;;;13.80;99.90;;;;;;5073195;28;19905;-74
2022/10/15 02:34:15;;;;;;;;;;;13.80;99.90;;;;;;5072990;28;19930;-75
2022/10/15 02:36:41;;;;;;;;;;;13.80;99.90;;;;;;5072956;28;19908;-75
2022/10/15 02:39:10;;;;;;;;;;;13.80;99.90;;;;;;5073183;28;19905;-74
2022/10/15 02:41:35;;;;;;;;;;;13.80;99.90;;;;;;5072780;28;20054;-76
2022/10/15 02:44:02;;;;;;;;;;;13.80;99.90;;;;;;5072737;28;19948;-75
2022/10/15 02:46:27;;;;;;;;;;;13.80;99.90;;;;;;5072706;28;19911;-75
2022/10/15 02:48:53;;;;;;;;;;;13.80;99.90;;;;;;5072661;28;20003;-76
2022/10/15 02:51:18;;;;;;;;;;;13.70;99.90;;;;;;5072885;28;19962;-76
2022/10/15 02:53:44;;;;;;;;;;;13.70;99.90;;;;;;5072730;28;19934;-75
2022/10/15 02:56:09;;;;;;;;;;;13.70;99.90;;;;;;5072622;28;19962;-74
2022/10/15 02:58:35;;;;;;;;;;;13.70;99.90;;;;;;5072731;28;19991;-77
2022/10/15 03:01:00;;;;;;;;;;;13.80;99.90;;;;;;5072888;28;19908;-75
2022/10/15 03:03:26;;;;;;;;;;;13.80;99.90;;;;;;5072775;28;19904;-76
2022/10/15 03:05:51;;;;;;;;;;;13.80;99.90;;;;;;5072739;28;19905;-74
2022/10/15 03:08:17;;;;;;;;;;;13.80;99.90;;;;;;5054493;28;19904;-75
2022/10/15 03:10:44;;;;;;;;;;;13.90;99.90;;;;;;5072437;28;19991;-75
2022/10/15 03:13:09;;;;;;;;;;;13.90;99.90;;;;;;5072124;28;20237;-75
2022/10/15 03:15:35;;;;;;;;;;;13.90;99.90;;;;;;5072703;28;20053;-75
2022/10/15 03:18:01;;;;;;;;;;;13.90;99.90;;;;;;5072168;28;20233;-74
2022/10/15 03:20:26;;;;;;;;;;;13.90;99.90;;;;;;5071991;28;19911;-76
2022/10/15 03:22:51;;;;;;;;;;;13.90;99.90;;;;;;5072158;28;20443;-77
2022/10/15 03:25:17;;;;;;;;;;;13.90;99.90;;;;;;5072499;28;19905;-75
2022/10/15 03:27:42;;;;;;;;;;;13.90;99.90;;;;;;5072383;28;19911;-77
2022/10/15 03:30:08;;;;;;;;;;;13.90;99.90;;;;;;5072478;28;19940;-74
2022/10/15 03:32:34;;;;;;;;;;;14.00;99.90;;;;;;5072407;28;19912;-74
2022/10/15 03:34:59;;;;;;;;;;;13.90;99.90;;;;;;5072161;28;19924;-75
2022/10/15 03:37:25;;;;;;;;;;;13.90;99.90;;;;;;5073348;28;19915;-74
2022/10/15 03:39:50;;;;;;;;;;;13.90;99.90;;;;;;5075786;28;19955;-75
2022/10/15 03:42:16;;;;;;;;;;;13.90;99.90;;;;;;5076051;28;20298;-74
2022/10/15 03:44:41;;;;;;;;;;;13.90;99.90;;;;;;5075835;28;19904;-75
2022/10/15 03:47:07;;;;;;;;;;;13.90;99.90;;;;;;5075826;28;20247;-75
2022/10/15 03:49:32;;;;;;;;;;;13.90;99.90;;;;;;5075996;28;20340;-74
2022/10/15 03:51:58;;;;;;;;;;;14.00;99.90;;;;;;5075297;28;19905;-75
2022/10/15 03:54:23;;;;;;;;;;;13.90;99.90;;;;;;5075690;28;19913;-75
2022/10/15 03:56:49;;;;;;;;;;;13.90;99.90;;;;;;5075303;28;19908;-75
2022/10/15 03:59:15;;;;;;;;;;;13.90;99.90;;;;;;5075350;28;19916;-75
2022/10/15 04:01:41;;;;;;;;;;;13.90;99.90;;;;;;5075172;28;19913;-74
2022/10/15 04:04:06;;;;;;;;;;;13.90;99.90;;;;;;5075786;28;20031;-74
2022/10/15 04:06:33;;;;;;;;;;;13.80;99.90;;;;;;5057218;28;19904;-75
2022/10/15 04:08:59;;;;;;;;;;;13.90;99.90;;;;;;5075370;28;19927;-75
2022/10/15 04:11:24;;;;;;;;;;;13.80;99.90;;;;;;5074851;28;20260;-76
2022/10/15 04:13:50;;;;;;;;;;;13.90;99.90;;;;;;5075141;28;19924;-76
2022/10/15 04:16:16;;;;;;;;;;;13.80;99.90;;;;;;5075701;28;19956;-75
2022/10/15 04:18:41;;;;;;;;;;;13.80;99.90;;;;;;5075230;28;20344;-75
2022/10/15 04:21:08;;;;;;;;;;;13.80;99.90;;;;;;5075255;28;19912;-76
2022/10/15 04:23:33;;;;;;;;;;;13.80;99.90;;;;;;5057019;28;20333;-74
2022/10/15 04:26:00;;;;;;;;;;;13.80;99.90;;;;;;5057100;28;19958;-77
2022/10/15 04:28:25;;;;;;;;;;;13.80;99.90;;;;;;5075303;28;19904;-75
2022/10/15 04:30:54;;;;;;;;;;;13.80;99.90;;;;;;5075191;28;20340;-76
2022/10/15 04:33:20;;;;;;;;;;;13.80;99.90;;;;;;5074836;28;19960;-77
2022/10/15 04:35:45;;;;;;;;;;;13.80;99.90;;;;;;5074662;28;20366;-75
2022/10/15 04:38:11;;;;;;;;;;;13.80;99.90;;;;;;5074864;28;20181;-75
2022/10/15 04:40:37;;;;;;;;;;;13.80;99.90;;;;;;5056878;28;19904;-76
2022/10/15 04:43:02;;;;;;;;;;;13.80;99.90;;;;;;5074787;28;19904;-76
2022/10/15 04:45:27;;;;;;;;;;;13.70;99.90;;;;;;5074888;28;19944;-76
2022/10/15 04:47:53;;;;;;;;;;;13.70;99.90;;;;;;5074626;28;19911;-77
2022/10/15 04:50:18;;;;;;;;;;;13.70;99.90;;;;;;5074362;28;19909;-76
2022/10/15 04:52:44;;;;;;;;;;;13.70;99.90;;;;;;5074497;28;20308;-74
2022/10/15 04:55:09;;;;;;;;;;;13.70;99.90;;;;;;5074417;28;19916;-75
2022/10/15 04:57:35;;;;;;;;;;;13.70;99.90;;;;;;5074466;28;19916;-74
2022/10/15 05:00:00;;;;;;;;;;;13.70;99.90;;;;;;5074532;28;20466;-75
2022/10/15 05:02:26;;;;;;;;;;;13.60;99.90;;;;;;5056584;28;19916;-74
2022/10/15 05:04:52;;;;;;;;;;;13.60;99.90;;;;;;5074638;28;19909;-75
2022/10/15 05:07:17;;;;;;;;;;;13.60;99.90;;;;;;5074321;28;19904;-75
2022/10/15 05:09:43;;;;;;;;;;;13.50;99.90;;;;;;5074283;28;19905;-76
2022/10/15 05:12:08;;;;;;;;;;;13.50;99.90;;;;;;5074086;28;19916;-76
2022/10/15 05:14:34;;;;;;;;;;;13.50;99.90;;;;;;5074277;28;20271;-76
2022/10/15 05:17:00;;;;;;;;;;;13.40;99.90;;;;;;5074248;28;19908;-75
2022/10/15 05:19:25;;;;;;;;;;;13.40;99.90;;;;;;5074200;28;19905;-75
2022/10/15 05:21:51;;;;;;;;;;;13.30;99.90;;;;;;5074137;28;20257;-75
2022/10/15 05:24:16;;;;;;;;;;;13.30;99.90;;;;;;5073783;28;19956;-77
2022/10/15 05:26:42;;;;;;;;;;;13.30;99.90;;;;;;5074136;28;19905;-75
2022/10/15 05:29:07;;;;;;;;;;;13.30;99.90;;;;;;5073938;28;20408;-76
2022/10/15 05:31:33;;;;;;;;;;;13.30;99.90;;;;;;5074118;28;20298;-75
2022/10/15 05:33:58;;;;;;;;;;;13.30;99.90;;;;;;5073645;28;19918;-74
2022/10/15 05:36:28;;;;;;;;;;;13.40;99.90;;;;;;5074018;28;19991;-74
2022/10/15 05:38:58;;;;;;;;;;;13.40;99.90;;;;;;5074206;28;19905;-74
2022/10/15 05:41:24;;;;;;;;;;;13.40;99.90;;;;;;5073824;28;19958;-74
2022/10/15 05:43:50;;;;;;;;;;;13.40;99.90;;;;;;5073947;28;19904;-76
2022/10/15 05:46:16;;;;;;;;;;;13.50;99.90;;;;;;5073564;28;19904;-75
2022/10/15 05:48:42;;;;;;;;;;;13.50;99.90;;;;;;5073869;28;19996;-77
2022/10/15 05:51:10;;;;;;;;;;;13.50;99.90;;;;;;5055825;28;19927;-74
2022/10/15 05:53:36;;;;;;;;;;;13.60;99.90;;;;;;5073495;28;19913;-75
2022/10/15 05:56:02;;;;;;;;;;;13.60;99.90;;;;;;5055496;28;19909;-76
2022/10/15 05:58:28;;;;;;;;;;;13.60;99.90;;;;;;5073602;28;19910;-74
2022/10/15 06:00:55;;;;;;;;;;;13.60;99.90;;;;;;5073082;28;20400;-76
2022/10/15 06:03:20;;;;;;;;;;;13.70;99.90;;;;;;5073445;28;19942;-73
2022/10/15 06:05:46;;;;;;;;;;;13.60;99.90;;;;;;5073726;28;19904;-76
2022/10/15 06:08:11;;;;;;;;;;;13.70;99.90;;;;;;5073444;28;19916;-75
2022/10/15 06:10:37;;;;;;;;;;;13.60;99.90;;;;;;5073655;28;19969;-77
2022/10/15 06:13:03;;;;;;;;;;;13.70;99.90;;;;;;5073087;28;19920;-76
2022/10/15 06:15:29;;;;;;;;;;;13.70;99.90;;;;;;5073140;28;19919;-76
2022/10/15 06:17:54;;;;;;;;;;;13.70;99.90;;;;;;5073907;28;19905;-76
2022/10/15 06:20:20;;;;;;;;;;;13.70;99.90;;;;;;5073586;28;20292;-73
2022/10/15 06:22:45;;;;;;;;;;;13.70;99.90;;;;;;5073418;28;19957;-76
2022/10/15 06:25:10;;;;;;;;;;;13.70;99.90;;;;;;5073152;28;20026;-76
2022/10/15 06:27:36;;;;;;;;;;;13.60;99.90;;;;;;5073169;28;19904;-74
2022/10/15 06:30:02;;;;;;;;;;;13.60;99.90;;;;;;5073845;28;20429;-75
2022/10/15 06:32:27;;;;;;;;;;;13.60;99.90;;;;;;5073047;28;19913;-76
2022/10/15 06:34:53;;;;;;;;;;;13.60;99.90;;;;;;5072863;28;19919;-73
2022/10/15 06:37:18;;;;;;;;;;;13.60;99.90;;;;;;5073292;28;19943;-76
2022/10/15 06:39:45;;;;;;;;;;;13.60;99.90;;;;;;5073721;28;19991;-74
2022/10/15 06:42:11;;;;;;;;;;;13.60;99.90;;;;;;5073403;28;19912;-75
2022/10/15 06:44:37;;;;;;;;;;;13.60;99.90;;;;;;5073126;28;19957;-75
2022/10/15 06:47:02;;;;;;;;;;;13.70;99.90;;;;;;5073340;28;19908;-74
2022/10/15 06:49:27;;;;;;;;;;;13.80;99.90;;;;;;5073042;28;20364;-76
2022/10/15 06:51:53;;;;;;;;;;;13.80;99.90;;;;;;5072828;28;19955;-76
2022/10/15 06:54:18;;;;;;;;;;;13.90;99.90;;;;;;5072764;28;19912;-76
2022/10/15 06:56:44;;;;;;;;;;;13.90;99.90;;;;;;5072683;28;20217;-76
2022/10/15 06:59:09;;;;;;;;;;;13.90;99.90;;;;;;5072973;28;19904;-74
2022/10/15 07:01:35;;;;;;;;;;;14.00;99.90;;;;;;5072975;28;19909;-75
2022/10/15 07:04:00;;;;;;;;;;;14.00;99.90;;;;;;5072855;28;19915;-77
2022/10/15 07:06:26;;;;;;;;;;;14.00;99.90;;;;;;5072938;28;19904;-76
2022/10/15 07:08:51;;;;;;;;;;;14.00;99.90;;;;;;5072668;28;20264;-76
2022/10/15 07:11:17;;;;;;;;;;;14.00;99.90;;;;;;5072535;28;19904;-74
2022/10/15 07:13:43;;;;;;;;;;;14.00;99.90;;;;;;5076103;28;19925;-73
2022/10/15 07:16:09;;;;;;;;;;;14.00;99.90;;;;;;5076336;28;19963;-77
2022/10/15 07:18:35;;;;;;;;;;;14.10;99.90;;;;;;5076464;28;19965;-76
2022/10/15 07:21:02;;;;;;;;;;;14.10;99.90;;;;;;5076280;28;19909;-76
2022/10/15 07:23:28;;;;;;;;;;;14.20;99.90;;;;;;5076129;28;19916;-76
2022/10/15 07:25:53;;;;;;;;;;;14.20;99.90;;;;;;5076346;28;19909;-74
2022/10/15 07:28:19;;;;;;;;;;;14.30;99.90;;;;;;5075907;28;19904;-74
2022/10/15 07:30:44;;;;;;;;;;;14.40;99.90;;;;;;5076126;28;19908;-76
2022/10/15 07:33:10;;;;;;;;;;;14.50;99.90;;;;;;5057733;28;20012;-75
2022/10/15 07:35:36;;;;;;;;;;;14.50;99.90;;;;;;5076057;28;19908;-76
2022/10/15 07:38:02;;;;;;;;;;;14.50;99.90;;;;;;5075803;28;19951;-75
2022/10/15 07:40:28;;;;;;;;;;;14.50;99.90;;;;;;5075706;28;19912;-77
2022/10/15 07:42:55;;;;;;;;;;;14.50;99.90;;;;;;5076326;28;19909;-74
2022/10/15 07:45:20;;;;;;;;;;;14.50;99.90;;;;;;5075857;28;20005;-77
2022/10/15 07:47:46;;;;;;;;;;;14.50;99.90;;;;;;5075569;28;19951;-77
2022/10/15 07:50:11;;;;;;;;;;;14.50;99.90;;;;;;5075756;28;20328;-75
2022/10/15 07:52:37;;;;;;;;;;;14.40;99.90;;;;;;5075656;28;19908;-77
2022/10/15 07:55:02;;;;;;;;;;;14.40;99.90;;;;;;5075183;28;19912;-74
2022/10/15 07:57:28;;;;;;;;;;;14.40;99.90;;;;;;5057490;28;20364;-76
2022/10/15 07:59:53;;;;;;;;;;;14.40;99.90;;;;;;5075506;28;19909;-75
2022/10/15 08:02:20;;;;;;;;;;;14.40;99.90;;;;;;5075312;28;19912;-77
2022/10/15 08:04:45;;;;;;;;;;;14.40;99.90;;;;;;5075648;28;19947;-78
2022/10/15 08:07:11;;;;;;;;;;;14.40;99.90;;;;;;5075535;28;19958;-78
2022/10/15 08:09:36;;;;;;;;;;;14.50;99.90;;;;;;5075542;28;19904;-78
2022/10/15 08:12:02;;;;;;;;;;;14.40;99.90;;;;;;5075240;28;19939;-76
2022/10/15 08:14:27;;;;;;;;;;;14.50;99.90;;;;;;5075435;28;20378;-77
2022/10/15 08:16:54;;;;;;;;;;;14.50;99.90;;;;;;5074858;28;19999;-76
2022/10/15 08:19:20;;;;;;;;;;;14.60;99.90;;;;;;5075188;28;19992;-74
2022/10/15 08:21:45;;;;;;;;;;;14.60;99.90;;;;;;5075249;28;19954;-76
2022/10/15 08:24:11;;;;;;;;;;;14.70;99.90;;;;;;5074662;28;19952;-76
2022/10/15 08:26:36;;;;;;;;;;;14.70;99.90;;;;;;5075326;28;19904;-78
2022/10/15 08:29:02;;;;;;;;;;;14.80;99.90;;;;;;5075167;28;19904;-75
2022/10/15 08:31:28;;;;;;;;;;;14.90;99.90;;;;;;5074873;28;20260;-76
2022/10/15 08:33:53;;;;;;;;;;;14.90;99.90;;;;;;5075070;28;20264;-77
2022/10/15 08:36:18;;;;;;;;;;;14.90;99.90;;;;;;5075224;28;19913;-76
2022/10/15 08:38:44;;;;;;;;;;;14.90;99.90;;;;;;5075131;28;19916;-75
2022/10/15 08:41:17;;;;;;;;;;;15.00;99.90;;;;;;5075262;28;20233;-74
2022/10/15 08:43:43;;;;;;;;;;;15.10;99.90;;;;;;5075023;28;19911;-76
2022/10/15 08:46:11;;;;;;;;;;;15.10;99.90;;;;;;5074614;28;19908;-75
2022/10/15 08:48:42;;;;;;;;;;;15.10;99.90;;;;;;5075025;28;19966;-75
2022/10/15 08:51:18;;;;;;;;;;;15.10;99.90;;;;;;5074162;28;19905;-75
2022/10/15 08:53:47;;;;;;;;;;;15.20;99.90;;;;;;5074483;28;20748;-77
2022/10/15 08:56:15;;;;;;;;;;;15.30;99.90;;;;;;5074980;28;20326;-77
2022/10/15 08:58:49;;;;;;;;;;;15.40;99.90;;;;;;5074522;28;19909;-75
2022/10/15 09:01:26;;;;;;;;;;;15.50;99.90;;;;;;5074645;28;19909;-74
2022/10/15 09:04:00;;;;;;;;;;;15.60;99.90;;;;;;5056697;28;20304;-75
2022/10/15 09:06:29;;;;;;;;;;;15.70;99.90;;;;;;5074779;28;19908;-78
2022/10/15 09:08:57;;;;;;;;;;;15.70;99.90;;;;;;5074293;28;19915;-76
2022/10/15 09:11:38;;;;;;;;;;;15.70;99.90;;;;;;5074232;28;19904;-76
2022/10/15 09:14:04;;;;;;;;;;;15.60;99.90;;;;;;5074132;28;19962;-76
2022/10/15 09:16:32;;;;;;;;;;;15.70;99.90;;;;;;5073792;28;19940;-75
2022/10/15 09:18:59;;;;;;;;;;;15.70;99.90;;;;;;5073777;28;19915;-77
2022/10/15 09:21:25;;;;;;;;;;;15.80;99.90;;;;;;5073789;28;20377;-74
2022/10/15 09:23:53;;;;;;;;;;;15.90;99.90;;;;;;5073833;28;19981;-75
2022/10/15 09:26:41;;;;;;;;;;;16.00;99.90;;;;;;5073969;28;19905;-74
2022/10/15 09:29:12;;;;;;;;;;;16.00;99.90;;;;;;5042737;28;20003;-75
2022/10/15 09:31:44;;;;;;;;;;;16.00;99.90;;;;;;5074548;28;19905;-76
2022/10/15 09:34:13;;;;;;;;;;;16.10;99.90;;;;;;5073408;28;19916;-73
2022/10/15 09:36:42;;;;;;;;;;;16.10;99.90;;;;;;5073643;28;19912;-75
2022/10/15 09:39:26;;;;;;;;;;;16.30;99.90;;;;;;5073958;28;20016;-77
2022/10/15 09:41:58;;;;;;;;;;;16.50;99.90;;;;;;5073639;28;20287;-75
2022/10/15 09:44:27;;;;;;;;;;;16.60;99.90;;;;;;5073670;28;19912;-75
2022/10/15 09:46:52;;;;;;;;;;;16.70;99.90;;;;;;5073985;28;19912;-74
2022/10/15 09:49:25;;;;;;;;;;;16.80;99.90;;;;;;5072647;28;19908;-76
2022/10/15 09:52:14;;;;;;;;;;;16.80;99.90;;;;;;5069390;28;20378;-76
2022/10/15 09:55:02;;;;;;;;;;;16.90;99.90;;;;;;5070401;28;19912;-74
2022/10/15 09:57:29;;;;;;;;;;;16.90;99.90;;;;;;5072428;28;19958;-76
2022/10/15 09:59:56;;;;;;;;;;;17.00;99.90;;;;;;5072109;28;19977;-76
2022/10/15 10:02:23;;;;;;;;;;;16.90;99.90;;;;;;5072013;28;19958;-75
2022/10/15 10:04:48;;;;;;;;;;;16.80;99.90;;;;;;5071916;28;20313;-75
2022/10/15 10:07:36;;;;;;;;;;;16.80;99.90;;;;;;5071906;28;19983;-75
2022/10/15 10:10:22;;;;;;;;;;;16.80;99.90;;;;;;5070751;28;20386;-75
2022/10/15 10:12:47;;;;;;;;;;;16.80;99.90;;;;;;5070615;28;20002;-75
2022/10/15 10:15:31;;;;;;;;;;;16.70;99.90;;;;;;5071634;28;19978;-75
2022/10/15 10:17:57;;;;;;;;;;;16.70;99.90;;;;;;5070081;28;19908;-75
2022/10/15 10:20:24;;;;;;;;;;;16.60;99.90;;;;;;5071369;28;19931;-75
2022/10/15 10:22:53;;;;;;;;;;;16.50;99.90;;;;;;5071693;28;19950;-76
2022/10/15 10:25:28;;;;;;;;;;;16.40;99.90;;;;;;5071462;28;20371;-75
2022/10/15 10:27:54;;;;;;;;;;;16.40;99.90;;;;;;5069615;28;19916;-76
2022/10/15 10:30:19;;;;;;;;;;;16.30;99.90;;;;;;5071590;28;19905;-75
2022/10/15 10:32:45;;;;;;;;;;;16.20;99.90;;;;;;5074523;28;19916;-76
2022/10/15 10:35:21;;;;;;;;;;;16.20;99.90;;;;;;5073740;28;19927;-76
2022/10/15 10:37:47;;;;;;;;;;;16.20;99.90;;;;;;5074107;28;19905;-76
2022/10/15 10:40:26;;;;;;;;;;;16.20;99.90;;;;;;5071833;28;19912;-76
2022/10/15 10:43:10;;;;;;;;;;;16.30;99.90;;;;;;5050901;28;19908;-75
2022/10/15 10:45:36;;;;;;;;;;;16.40;99.90;;;;;;5051591;28;19947;-76
2022/10/15 10:48:22;;;;;;;;;;;16.60;99.90;;;;;;5076213;28;19940;-75
2022/10/15 10:50:47;;;;;;;;;;;16.70;99.90;;;;;;5074949;28;19909;-77
2022/10/15 10:53:19;;;;;;;;;;;16.60;99.90;;;;;;5072644;28;20391;-77
2022/10/15 10:55:44;;;;;;;;;;;16.60;99.90;;;;;;5075976;28;19995;-75
2022/10/15 10:58:14;;;;;;;;;;;16.50;99.90;;;;;;5076659;28;19978;-77
2022/10/15 11:00:42;;;;;;;;;;;16.40;99.90;;;;;;5076077;28;19912;-77
2022/10/15 11:03:19;;;;;;;;;;;16.40;99.90;;;;;;5079667;28;19904;-75
2022/10/15 11:05:46;;;;;;;;;;;16.20;99.90;;;;;;5096727;28;19939;-76
2022/10/15 11:08:26;;;;;;;;;;;16.20;99.90;;;;;;5096519;28;20359;-76
2022/10/15 11:10:57;;;;;;;;;;;16.10;99.90;;;;;;5081348;28;20383;-77
2022/10/15 11:13:23;;;;;;;;;;;16.20;99.90;;;;;;5075741;28;19923;-76
2022/10/15 11:15:54;;;;;;;;;;;16.20;99.90;;;;;;5076440;28;19904;-76
2022/10/15 11:18:38;;;;;;;;;;;16.20;99.90;;;;;;5076415;28;19905;-76
2022/10/15 11:21:22;;;;;;;;;;;16.20;99.90;;;;;;5076449;28;19932;-76
2022/10/15 11:23:59;;;;;;;;;;;16.30;99.90;;;;;;5080719;28;19905;-76
2022/10/15 11:26:44;;;;;;;;;;;16.40;99.90;;;;;;5055633;28;19911;-78
2022/10/15 11:29:27;;;;;;;;;;;16.60;99.90;;;;;;5075554;28;19959;-75
2022/10/15 11:32:12;;;;;;;;;;;16.80;99.90;;;;;;5076382;28;20247;-75
2022/10/15 11:34:43;;;;;;;;;;;16.80;99.90;;;;;;5074937;28;19924;-75
2022/10/15 11:37:20;;;;;;;;;;;16.80;99.90;;;;;;5075989;28;19910;-76
2022/10/15 11:39:58;;;;;;;;;;;16.80;99.90;;;;;;5075789;28;19905;-76
2022/10/15 11:42:36;;;;;;;;;;;16.90;99.90;;;;;;5076009;28;19905;-75
2022/10/15 11:45:20;;;;;;;;;;;17.00;99.90;;;;;;5057635;28;20137;-77
2022/10/15 11:48:04;;;;;;;;;;;17.10;99.90;;;;;;5075559;28;19905;-77
2022/10/15 11:50:49;;;;;;;;;;;17.10;99.90;;;;;;5075896;28;19912;-77
2022/10/15 11:53:17;;;;;;;;;;;17.00;99.90;;;;;;5075781;28;20351;-75
2022/10/15 11:56:00;;;;;;;;;;;17.00;99.90;;;;;;5075729;28;19916;-76
2022/10/15 11:58:29;;;;;;;;;;;17.00;99.90;;;;;;5074826;28;19911;-77
2022/10/15 12:00:57;;;;;;;;;;;17.00;99.90;;;;;;5057560;28;19927;-75
2022/10/15 12:03:24;;;;;;;;;;;17.00;99.90;;;;;;5075555;28;19948;-78
2022/10/15 12:06:02;;;;;;;;;;;17.00;99.90;;;;;;5074886;28;19962;-75
2022/10/15 12:08:31;;;;;;;;;;;17.00;99.90;;;;;;5075020;28;19905;-75
2022/10/15 12:11:12;;;;;;;;;;;17.00;99.90;;;;;;5075429;28;20014;-76
2022/10/15 12:13:40;;;;;;;;;;;16.90;99.90;;;;;;5074855;28;19921;-77
2022/10/15 12:16:06;;;;;;;;;;;16.90;99.90;;;;;;5074723;28;19967;-76
2022/10/15 12:18:37;;;;;;;;;;;17.00;99.90;;;;;;5075073;28;20413;-75
2022/10/15 12:21:02;;;;;;;;;;;17.00;99.90;;;;;;5059551;28;19909;-75
2022/10/15 12:23:37;;;;;;;;;;;17.00;99.90;;;;;;5055362;28;20249;-74
2022/10/15 12:26:22;;;;;;;;;;;17.10;99.90;;;;;;5055328;28;19909;-75
2022/10/15 12:28:49;;;;;;;;;;;17.20;99.90;;;;;;5054924;28;19905;-74
2022/10/15 12:31:19;;;;;;;;;;;17.20;99.90;;;;;;5054799;28;19959;-75
2022/10/15 12:33:48;;;;;;;;;;;17.20;99.90;;;;;;5054819;28;19920;-74
2022/10/15 12:36:26;;;;;;;;;;;17.20;99.90;;;;;;5054842;28;19905;-77
2022/10/15 12:39:00;;;;;;;;;;;17.10;99.90;;;;;;5036639;28;19915;-76
2022/10/15 12:41:51;;;;;;;;;;;17.10;99.90;;;;;;5054672;28;19905;-76
2022/10/15 12:44:20;;;;;;;;;;;17.00;99.90;;;;;;5052089;28;19912;-76
2022/10/15 12:46:45;;;;;;;;;;;17.00;99.90;;;;;;5064062;28;19928;-74
2022/10/15 12:49:37;;;;;;;;;;;17.20;99.90;;;;;;5074347;28;20482;-76
2022/10/15 12:52:22;;;;;;;;;;;17.30;99.90;;;;;;5070043;28;19915;-76
2022/10/15 12:54:50;;;;;;;;;;;17.40;99.90;;;;;;5073916;28;19923;-74
2022/10/15 12:57:33;;;;;;;;;;;17.50;99.90;;;;;;5074450;28;19905;-76
2022/10/15 13:00:02;;;;;;;;;;;17.60;99.90;;;;;;5074132;28;19931;-75
2022/10/15 13:02:42;;;;;;;;;;;17.70;99.90;;;;;;5074007;28;20003;-76
2022/10/15 13:05:22;;;;;;;;;;;17.80;99.90;;;;;;5074168;28;19908;-78
2022/10/15 13:07:48;;;;;;;;;;;17.90;99.90;;;;;;5074294;28;19909;-77
2022/10/15 13:10:19;;;;;;;;;;;18.10;99.90;;;;;;5073575;28;19904;-75
2022/10/15 13:12:49;;;;;;;;;;;18.10;99.90;;;;;;5073676;28;20206;-77
2022/10/15 13:15:15;;;;;;;;;;;18.10;99.90;;;;;;5074045;28;20019;-77
2022/10/15 13:17:40;;;;;;;;;;;18.20;99.90;;;;;;5073371;28;20400;-75
2022/10/15 13:20:16;;;;;;;;;;;18.40;99.90;;;;;;5073839;28;19912;-76
2022/10/15 13:22:42;;;;;;;;;;;18.40;99.90;;;;;;5055922;28;19916;-77
2022/10/15 13:25:14;;;;;;;;;;;18.50;99.90;;;;;;5073920;28;19909;-76
2022/10/15 13:27:40;;;;;;;;;;;18.50;99.90;;;;;;5073441;28;19958;-77
2022/10/15 13:30:08;;;;;;;;;;;18.50;99.90;;;;;;5073833;28;19904;-75
2022/10/15 13:32:35;;;;;;;;;;;18.50;99.90;;;;;;5071725;28;19916;-75
2022/10/15 13:35:09;;;;;;;;;;;18.40;99.90;;;;;;5072454;28;19920;-76
2022/10/15 13:37:37;;;;;;;;;;;18.50;99.90;;;;;;5073578;28;19904;-75
2022/10/15 13:40:03;;;;;;;;;;;18.50;99.90;;;;;;5073529;28;19954;-76
2022/10/15 13:42:30;;;;;;;;;;;18.60;99.90;;;;;;5073659;28;19915;-75
2022/10/15 13:44:57;;;;;;;;;;;18.60;99.90;;;;;;5073867;28;19912;-75
2022/10/15 13:47:34;;;;;;;;;;;18.50;99.90;;;;;;5073614;28;19946;-75
2022/10/15 13:50:18;;;;;;;;;;;18.60;99.90;;;;;;5073514;28;19980;-75
2022/10/15 13:52:45;;;;;;;;;;;18.50;99.90;;;;;;5073670;28;19922;-77
2022/10/15 13:55:20;;;;;;;;;;;18.60;99.90;;;;;;5073063;28;19912;-75
2022/10/15 13:57:50;;;;;;;;;;;18.70;99.90;;;;;;5073640;28;19904;-75
2022/10/15 14:00:20;;;;;;;;;;;18.80;99.90;;;;;;5085305;28;19945;-76
2022/10/15 14:02:45;;;;;;;;;;;18.90;99.90;;;;;;5093618;28;19957;-77
2022/10/15 14:05:15;;;;;;;;;;;18.90;99.90;;;;;;5093570;28;19904;-75
2022/10/15 14:07:40;;;;;;;;;;;18.90;99.90;;;;;;5093446;28;19927;-76
2022/10/15 14:10:07;;;;;;;;;;;18.80;99.90;;;;;;5093454;28;20332;-75
2022/10/15 14:12:32;;;;;;;;;;;18.60;99.90;;;;;;5091942;28;19916;-75
2022/10/15 14:15:18;;;;;;;;;;;18.60;99.90;;;;;;5092307;28;19923;-75
2022/10/15 14:17:48;;;;;;;;;;;18.50;99.90;;;;;;5092751;28;20476;-75
2022/10/15 14:20:17;;;;;;;;;;;18.40;99.90;;;;;;5093597;28;19915;-76
2022/10/15 14:22:47;;;;;;;;;;;18.20;99.90;;;;;;5093315;28;19908;-76
2022/10/15 14:25:19;;;;;;;;;;;18.10;99.90;;;;;;5093463;28;19908;-76